Meteo Giornale » Osservazioni meteo Italia » Palermo-Punta Raisi

ore: 04:20 - Osservazioni Meteo Palermo-Punta Raisi
Lat. 38° 11' N Lon. 13° 6' E Alt. 21 metri s.l.m.

sereno Europe/Rome

27 °C

Sereno

Temp. 24 Ore

26 °C

34 °C

Ovest

27.8 Km/h

Dew point 21 °C

Umidità 69 %

Visibilità  10 Km

Il sole sorge alle ore 06:03

Il sole tramonta alle ore 20:24

Data e Ora Cielo e Fenomeni T °C DP °C Um. % Pres. hPa Vis. km Vento km/h
Oggi h: 04:20 sereno Sereno 27 21 69 1009 10 O 27.8
Oggi h: 03:50 sereno Sereno 27 21 69 1009 10 O 25.9
Oggi h: 03:20 sereno Sereno 27 21 69 1009 10 O 31.5
Oggi h: 02:50 sereno Sereno 27 21 69 1009 10 O 27.8
Oggi h: 02:20 sereno Sereno 27 20 65 1009 10 SO 14.8
Oggi h: 01:50 sereno Sereno 26 22 78 1009 10 S/SO 16.7
Oggi h: 01:20 sereno Sereno 27 22 74 1010 10 SO 20.3
Oggi h: 00:50 sereno Sereno 26 22 78 1010 10 SO 11.1
Oggi h: 00:20 sereno Sereno 26 22 78 1010 10 SO 11.1
Ieri h: 23:50 sereno Sereno 27 21 69 1010 10 S/SO 16.7
Ieri h: 23:20 sereno Sereno 27 22 74 1011 10 SO 18.5
Ieri h: 22:50 sereno Sereno 27 23 78 1011 10 O/SO 16.7
Ieri h: 22:20 sereno Sereno 27 24 83 1011 10 SO 13
Ieri h: 21:50 sereno Sereno 27 23 78 1011 10 O/SO 11.1
Ieri h: 21:20 sereno Sereno 27 23 78 1010 10 O/SO 11.1
Ieri h: 20:50 sereno Sereno 27 23 78 1010 10 O 13
Ieri h: 20:20 sereno Sereno 27 23 78 1010 10 O 11.1
Ieri h: 19:50 sereno Sereno 27 23 78 1010 10 O/NO 9.3
Ieri h: 19:20 poco_nuvoloso Poco Nuvoloso 28 23 74 1010 10 N 5.5
Ieri h: 18:20 poco_nuvoloso Poco Nuvoloso 28 23 74 1010 10 O/SO 9.3
Ieri h: 17:50 nuvoloso Nuvoloso 28 24 78 1010 10 O/SO 9.3
Ieri h: 17:20 poco_nuvoloso Poco Nuvoloso 28 23 74 1010 10 O/SO 9.3
Ieri h: 16:50 nuvoloso_temporali Temporale con Pioggia 28 23 74 1010 6 SO 9.3
Ieri h: 16:20 poco_nuvoloso Poco Nuvoloso 28 24 78 1010 9 O/SO 13
Ieri h: 15:20 nuvoloso Nuvoloso 28 23 74 1010 8 O 38.8
Ieri h: 14:50 sereno Sereno 29 23 70 1009 10 O/NO 37
Ieri h: 14:20 sereno Sereno 29 23 70 1009 10 O/NO 27.8
Ieri h: 13:50 sereno Sereno 30 22 62 1009 10 O/NO 29.6
Ieri h: 13:20 sereno Sereno 30 22 62 1009 10 O/NO 29.6
Ieri h: 12:50 sereno Sereno 31 23 62 1010 10 O/NO 24
Ieri h: 12:20 sereno Sereno 31 21 55 1009 10 O/NO 16.7
Ieri h: 11:50 sereno Sereno 30 23 66 1010 10 O 16.7
Ieri h: 11:20 sereno Sereno 34 17 36 1010 10 O/SO 14.8
Ieri h: 10:50 sereno Sereno 30 21 58 1010 10 N 5.5
Ieri h: 10:20 sereno Sereno 29 22 66 1010 10 NO 9.3
Ieri h: 09:50 sereno Sereno 34 15 32 1009 10 E/NE 13
Ieri h: 09:20 sereno Sereno 30 20 55 1009 10 N 3.7
Ieri h: 08:50 sereno Sereno 29 18 51 1009 10 S 13
Ieri h: 08:20 sereno Sereno 28 19 58 1009 10 SO 18.5
Ieri h: 07:50 sereno Sereno 28 20 61 1010 10 SO 14.8
Ieri h: 07:20 sereno Sereno 27 19 61 1010 10 S/SO 20.3
Ieri h: 06:50 sereno Sereno 26 21 73 1010 10 SO 9.3
Ieri h: 06:20 sereno Sereno 26 22 78 1011 10 O/SO 16.7
Ieri h: 06:02 sereno Sereno 27 23 78 1013 10 N 3.7
Ieri h: 05:50 sereno Sereno 26 21 73 1012 10 E 16.7
Ieri h: 05:20 sereno Sereno 26 21 73 1012 10 E/NE 20.3
Ieri h: 04:50 sereno Sereno 26 22 78 1013 10 NE 16.7